Time;durP1;ratioP1;P1;durP2;ratioP2;P2;SDS_P1;SDS_P2;PMS_P1;PMS_P2;Temp;Humidity;BMP_temperature;BMP_pressure;BME280_temperature;BME280_humidity;BME280_pressure;Samples;Min_cycle;Max_cycle;Signal;HPM_P1;HPM_P2
2022/06/27 00:01:48;;;;;;;17.98;5.88;;;;;;;17.64;100.00;98256.03;5043774;28;20029;-71
2022/06/27 00:04:14;;;;;;;10.02;5.80;;;;;;;17.63;100.00;98253.47;5043749;28;20033;-71
2022/06/27 00:06:39;;;;;;;8.30;4.95;;;;;;;17.62;100.00;98244.59;5057085;28;20021;-71
2022/06/27 00:09:05;;;;;;;12.77;5.25;;;;;;;17.59;100.00;98251.91;5063118;28;20048;-71
2022/06/27 00:11:31;;;;;;;11.32;5.38;;;;;;;17.51;100.00;98262.09;5061494;28;20036;-71
2022/06/27 00:13:56;;;;;;;12.30;5.68;;;;;;;17.51;100.00;98265.63;5063121;28;20051;-71
2022/06/27 00:16:21;;;;;;;8.80;5.68;;;;;;;17.49;100.00;98282.63;5054627;28;20036;-71
2022/06/27 00:18:47;;;;;;;10.23;5.97;;;;;;;17.54;100.00;98297.41;5062644;28;20029;-71
2022/06/27 00:21:12;;;;;;;8.25;5.78;;;;;;;17.54;100.00;98285.88;5049623;28;20194;-71
2022/06/27 00:23:38;;;;;;;9.25;5.68;;;;;;;17.57;100.00;98275.06;5044644;28;20071;-71
2022/06/27 00:26:03;;;;;;;11.05;5.53;;;;;;;17.54;100.00;98273.44;5046987;28;20025;-71
2022/06/27 00:28:28;;;;;;;10.77;6.40;;;;;;;17.47;100.00;98285.34;5066823;28;20020;-71
2022/06/27 00:30:54;;;;;;;11.60;6.43;;;;;;;17.46;100.00;98293.41;5066825;28;20028;-71
2022/06/27 00:33:19;;;;;;;8.73;5.93;;;;;;;17.44;100.00;98300.59;5055181;28;20347;-71
2022/06/27 00:35:45;;;;;;;9.23;5.95;;;;;;;17.43;100.00;98304.22;5060725;28;20020;-71
2022/06/27 00:38:11;;;;;;;8.10;5.15;;;;;;;17.47;100.00;98297.78;5066668;28;20390;-71
2022/06/27 00:40:36;;;;;;;8.40;5.38;;;;;;;17.43;100.00;98293.56;5066576;28;20213;-71
2022/06/27 00:43:02;;;;;;;9.55;5.63;;;;;;;17.40;100.00;98283.06;5066625;28;20025;-71
2022/06/27 00:45:27;;;;;;;10.10;5.20;;;;;;;17.51;100.00;98275.41;5065322;28;20059;-71
2022/06/27 00:47:53;;;;;;;6.65;4.57;;;;;;;17.47;100.00;98273.84;5064052;28;20036;-71
2022/06/27 00:50:18;;;;;;;7.65;4.78;;;;;;;17.47;100.00;98257.88;5060678;28;20044;-71
2022/06/27 00:52:44;;;;;;;12.25;4.88;;;;;;;17.42;100.00;98238.59;5049621;28;20092;-71
2022/06/27 00:55:09;;;;;;;10.38;4.78;;;;;;;17.38;100.00;98232.59;5047057;28;20056;-71
2022/06/27 00:57:35;;;;;;;8.70;4.75;;;;;;;17.36;100.00;98233.59;5053183;28;20017;-71
2022/06/27 01:00:04;;;;;;;6.85;4.55;;;;;;;17.34;100.00;98240.81;5056813;28;20324;-71
2022/06/27 01:02:30;;;;;;;10.73;4.85;;;;;;;17.36;100.00;98247.75;5047402;28;20061;-71
2022/06/27 01:04:55;;;;;;;6.47;4.82;;;;;;;17.36;100.00;98249.56;5061309;28;20025;-71
2022/06/27 01:07:21;;;;;;;8.52;3.88;;;;;;;17.35;100.00;98263.81;5065882;28;20052;-71
2022/06/27 01:09:47;;;;;;;6.82;4.53;;;;;;;17.36;100.00;98268.16;5066132;28;20021;-71
2022/06/27 01:12:12;;;;;;;7.13;4.57;;;;;;;17.33;100.00;98258.56;5066067;28;20339;-71
2022/06/27 01:14:38;;;;;;;7.13;4.93;;;;;;;17.33;100.00;98261.22;5055821;28;20025;-71
2022/06/27 01:17:04;;;;;;;10.48;4.05;;;;;;;17.38;100.00;98258.31;5046558;28;20029;-71
2022/06/27 01:19:29;;;;;;;6.68;4.18;;;;;;;17.33;100.00;98249.75;5057520;28;20028;-71
2022/06/27 01:21:56;;;;;;;6.10;4.25;;;;;;;17.34;100.00;98262.09;5066458;28;20228;-71
2022/06/27 01:24:24;;;;;;;6.93;4.15;;;;;;;17.32;100.00;98258.63;5066423;28;20279;-71
2022/06/27 01:26:50;;;;;;;7.13;3.90;;;;;;;17.37;100.00;98270.75;5066235;28;20035;-71
2022/06/27 01:29:17;;;;;;;5.45;3.90;;;;;;;17.40;100.00;98272.41;5066310;28;20032;-71
2022/06/27 01:31:43;;;;;;;5.20;3.58;;;;;;;17.45;100.00;98275.72;5066255;28;20021;-71
2022/06/27 01:34:09;;;;;;;7.25;3.95;;;;;;;17.42;100.00;98268.72;5066302;28;20028;-71
2022/06/27 01:36:44;;;;;;;5.70;4.00;;;;;;;17.41;100.00;98260.81;5066136;28;20055;-71
2022/06/27 01:39:12;;;;;;;5.60;4.00;;;;;;;17.38;100.00;98255.66;5065118;28;20021;-71
2022/06/27 01:41:41;;;;;;;5.55;4.18;;;;;;;17.34;100.00;98252.31;5065496;28;20052;-71
2022/06/27 01:44:08;;;;;;;10.75;4.57;;;;;;;17.23;100.00;98244.03;5065081;28;20071;-71
2022/06/27 01:46:45;;;;;;;6.43;4.10;;;;;;;17.16;100.00;98254.13;5046000;28;20044;-71
2022/06/27 01:49:12;;;;;;;6.70;3.83;;;;;;;17.16;100.00;98259.47;5046008;28;20041;-71
2022/06/27 01:51:38;;;;;;;7.28;3.92;;;;;;;17.14;100.00;98261.31;5065146;28;20139;-71
2022/06/27 01:54:06;;;;;;;8.80;4.30;;;;;;;17.11;100.00;98261.47;5065271;28;20033;-71
2022/06/27 01:56:32;;;;;;;9.80;4.13;;;;;;;17.06;100.00;98241.38;5063597;28;20381;-71
2022/06/27 01:58:58;;;;;;;6.95;4.50;;;;;;;17.02;100.00;98232.69;5053120;28;20025;-71
2022/06/27 02:01:25;;;;;;;7.43;4.53;;;;;;;16.97;100.00;98216.13;5046897;28;20151;-71
2022/06/27 02:03:52;;;;;;;13.45;3.65;;;;;;;16.95;100.00;98204.72;5045688;28;20386;-71
2022/06/27 02:06:17;;;;;;;6.35;4.47;;;;;;;17.02;100.00;98237.13;5045602;28;20027;-71
2022/06/27 02:08:48;;;;;;;13.30;4.85;;;;;;;17.07;100.00;98254.59;5053602;28;20029;-71
2022/06/27 02:11:14;;;;;;;10.00;5.32;;;;;;;17.07;100.00;98243.09;5053960;28;20026;-71
2022/06/27 02:13:41;;;;;;;7.05;4.72;;;;;;;17.07;100.00;98206.75;5045506;28;20025;-71
2022/06/27 02:16:11;;;;;;;7.78;4.95;;;;;;;17.10;100.00;98219.00;5045454;28;20029;-71
2022/06/27 02:18:37;;;;;;;8.30;4.88;;;;;;;17.15;100.00;98246.25;5045344;28;20044;-71
2022/06/27 02:21:02;;;;;;;8.52;5.30;;;;;;;17.13;100.00;98259.63;5045335;28;20093;-71
2022/06/27 02:23:28;;;;;;;6.75;4.90;;;;;;;17.11;100.00;98266.78;5054444;28;20036;-71
2022/06/27 02:25:55;;;;;;;7.93;4.53;;;;;;;17.14;100.00;98282.59;5061469;28;20217;-71
2022/06/27 02:28:23;;;;;;;13.30;5.53;;;;;;;17.17;100.00;98285.09;5045194;28;20021;-71
2022/06/27 02:30:49;;;;;;;7.93;5.63;;;;;;;17.17;100.00;98281.56;5045226;28;20056;-71
2022/06/27 02:33:15;;;;;;;10.32;4.70;;;;;;;17.23;100.00;98294.56;5045178;28;20067;-71
2022/06/27 02:35:42;;;;;;;6.20;4.82;;;;;;;17.28;100.00;98296.03;5064146;28;20020;-71
2022/06/27 02:38:10;;;;;;;10.23;5.57;;;;;;;17.31;100.00;98296.84;5064491;28;20224;-71
2022/06/27 02:40:41;;;;;;;10.02;5.30;;;;;;;17.36;100.00;98297.44;5046658;28;20328;-71
2022/06/27 02:43:08;;;;;;;9.35;4.68;;;;;;;17.40;100.00;98315.00;5058018;28;20029;-71
2022/06/27 02:45:36;;;;;;;7.40;4.85;;;;;;;17.43;100.00;98314.88;5064056;28;20017;-71
2022/06/27 02:48:02;;;;;;;8.05;5.57;;;;;;;17.45;100.00;98312.97;5064448;28;20031;-71
2022/06/27 02:50:31;;;;;;;11.55;6.10;;;;;;;17.49;100.00;98299.44;5064269;28;20017;-71
2022/06/27 02:53:00;;;;;;;11.10;6.30;;;;;;;17.54;100.00;98289.41;5063905;28;20029;-71
2022/06/27 02:55:37;;;;;;;8.20;4.93;;;;;;;17.57;100.00;98283.06;5062748;28;20021;-71
2022/06/27 02:58:10;;;;;;;7.90;5.15;;;;;;;17.63;100.00;98264.09;5055474;28;20040;-71
2022/06/27 03:00:39;;;;;;;9.38;5.55;;;;;;;17.65;100.00;98264.91;5063954;28;20024;-71
2022/06/27 03:03:06;;;;;;;9.73;5.93;;;;;;;17.68;100.00;98273.56;5056227;28;20026;-71
2022/06/27 03:05:32;;;;;;;8.43;5.78;;;;;;;17.71;100.00;98267.22;5053069;28;20279;-71
2022/06/27 03:07:58;;;;;;;7.82;6.15;;;;;;;17.68;100.00;98262.06;5047172;28;20056;-71
2022/06/27 03:10:23;;;;;;;9.18;5.93;;;;;;;17.67;100.00;98281.63;5063873;28;20313;-71
2022/06/27 03:12:49;;;;;;;9.20;6.13;;;;;;;17.66;100.00;98290.56;5046675;28;20025;-71
2022/06/27 03:15:14;;;;;;;8.23;5.38;;;;;;;17.67;100.00;98290.47;5044618;28;20022;-71
2022/06/27 03:17:40;;;;;;;10.95;6.55;;;;;;;17.67;100.00;98295.81;5044345;28;20028;-71
2022/06/27 03:20:06;;;;;;;9.00;6.43;;;;;;;17.68;100.00;98291.34;5044284;28;20021;-71
2022/06/27 03:22:31;;;;;;;14.98;6.50;;;;;;;17.65;100.00;98283.53;5045393;28;20025;-71
2022/06/27 03:24:56;;;;;;;11.70;6.88;;;;;;;17.64;100.00;98264.03;5044133;28;20272;-71
2022/06/27 03:27:22;;;;;;;9.70;5.53;;;;;;;17.65;100.00;98256.91;5061207;28;20033;-71
2022/06/27 03:29:47;;;;;;;11.88;6.32;;;;;;;17.71;100.00;98264.53;5062004;28;20025;-71
2022/06/27 03:32:13;;;;;;;11.50;7.13;;;;;;;17.72;100.00;98276.94;5045352;28;20333;-71
2022/06/27 03:34:38;;;;;;;14.38;6.25;;;;;;;17.72;100.00;98292.91;5048216;28;20029;-71
2022/06/27 03:37:04;;;;;;;10.20;6.30;;;;;;;17.72;100.00;98293.75;5055229;28;20028;-71
2022/06/27 03:39:29;;;;;;;11.38;6.20;;;;;;;17.72;100.00;98295.56;5045943;28;20033;-71
2022/06/27 03:41:55;;;;;;;10.55;6.55;;;;;;;17.73;100.00;98273.31;5044054;28;20080;-71
2022/06/27 03:44:20;;;;;;;8.55;6.55;;;;;;;17.72;100.00;98263.63;5045174;28;20348;-71
2022/06/27 03:46:45;;;;;;;9.10;6.13;;;;;;;17.71;100.00;98299.16;5059078;28;20024;-71
2022/06/27 03:51:55;;;;;;;22.77;7.32;;;;;;;17.74;100.00;98309.63;5063345;28;20098;-71
2022/06/27 03:54:21;;;;;;;17.13;7.68;;;;;;;17.72;100.00;98298.22;5063028;28;20025;-71
2022/06/27 03:56:47;;;;;;;11.30;6.97;;;;;;;17.71;100.00;98283.19;5057362;28;20075;-71
2022/06/27 03:59:12;;;;;;;10.30;6.95;;;;;;;17.69;100.00;98293.06;5042860;28;20029;-71
2022/06/27 04:01:38;;;;;;;14.75;6.57;;;;;;;17.71;100.00;98293.81;5060539;28;20087;-71
2022/06/27 04:04:05;;;;;;;12.13;5.93;;;;;;;17.73;100.00;98271.53;5047148;28;20025;-71
2022/06/27 04:06:30;;;;;;;24.95;13.00;;;;;;;17.71;100.00;98277.84;5056256;28;20024;-73
2022/06/27 04:08:55;;;;;;;19.58;11.30;;;;;;;17.72;100.00;98290.25;5067542;28;20031;-72
2022/06/27 04:11:21;;;;;;;24.25;14.48;;;;;;;17.70;100.00;98271.69;5067808;28;20025;-72
2022/06/27 04:13:46;;;;;;;19.60;10.20;;;;;;;17.69;100.00;98263.78;5067757;28;20251;-72
2022/06/27 04:16:12;;;;;;;20.17;11.98;;;;;;;17.77;100.00;98282.84;5067762;28;20047;-72
2022/06/27 04:18:37;;;;;;;22.42;14.05;;;;;;;17.80;100.00;98288.00;5067614;28;20028;-72
2022/06/27 04:21:03;;;;;;;23.88;14.48;;;;;;;17.77;100.00;98289.03;5067844;28;20367;-72
2022/06/27 04:23:28;;;;;;;19.65;13.45;;;;;;;17.78;100.00;98285.44;5067423;28;20025;-72
2022/06/27 04:25:53;;;;;;;25.17;13.27;;;;;;;17.81;100.00;98281.78;5067528;28;20036;-72
2022/06/27 04:28:19;;;;;;;22.95;14.52;;;;;;;17.81;100.00;98281.78;5067434;28;20332;-72
2022/06/27 04:30:44;;;;;;;26.15;14.95;;;;;;;17.83;100.00;98282.53;5067439;28;20017;-72
2022/06/27 04:33:11;;;;;;;26.48;14.48;;;;;;;17.84;100.00;98281.59;5066171;28;20029;-72
2022/06/27 04:35:36;;;;;;;29.77;14.52;;;;;;;17.81;100.00;98290.59;5067308;28;20066;-72
2022/06/27 04:38:02;;;;;;;22.60;14.13;;;;;;;17.82;100.00;98302.13;5067321;28;20247;-72
2022/06/27 04:40:29;;;;;;;23.00;15.38;;;;;;;17.78;100.00;98316.53;5067238;28;20316;-72
2022/06/27 04:42:56;;;;;;;22.67;14.52;;;;;;;17.70;100.00;98311.63;5067252;28;20029;-72
2022/06/27 04:45:22;;;;;;;24.30;16.10;;;;;;;17.69;100.00;98309.03;5067169;28;20021;-72
2022/06/27 04:47:47;;;;;;;24.80;16.27;;;;;;;17.66;100.00;98323.38;5067161;28;20048;-72
2022/06/27 04:50:16;;;;;;;25.40;16.88;;;;;;;17.68;100.00;98337.44;5067155;28;20025;-72
2022/06/27 04:52:41;;;;;;;24.10;16.05;;;;;;;17.67;100.00;98318.88;5067054;28;20025;-72
2022/06/27 04:55:09;;;;;;;28.85;17.20;;;;;;;17.66;100.00;98311.84;5067022;28;20028;-72
2022/06/27 04:57:40;;;;;;;21.60;14.85;;;;;;;17.65;100.00;98332.28;5066947;28;20078;-72
2022/06/27 05:00:09;;;;;;;27.75;16.90;;;;;;;17.65;100.00;98342.09;5066781;28;20040;-72
2022/06/27 05:02:35;;;;;;;28.10;15.75;;;;;;;17.66;100.00;98349.13;5066804;28;20107;-72
2022/06/27 05:05:02;;;;;;;32.42;17.83;;;;;;;17.64;100.00;98361.63;5067059;28;20021;-72
2022/06/27 05:07:28;;;;;;;33.67;17.38;;;;;;;17.60;100.00;98371.59;5066761;28;20028;-72
2022/06/27 05:09:54;;;;;;;32.58;18.55;;;;;;;17.59;100.00;98398.28;5066632;28;20025;-73
2022/06/27 05:12:20;;;;;;;24.27;14.63;;;;;;;17.63;100.00;98394.53;5065475;28;20072;-73
2022/06/27 05:14:46;;;;;;;40.28;18.23;;;;;;;17.62;100.00;98390.16;5066486;28;20024;-73
2022/06/27 05:17:11;;;;;;;32.70;18.00;;;;;;;17.62;100.00;98385.66;5066633;28;20027;-73
2022/06/27 05:19:37;;;;;;;34.45;17.90;;;;;;;17.63;100.00;98386.53;5066424;28;20040;-73
2022/06/27 05:22:03;;;;;;;35.58;18.08;;;;;;;17.64;100.00;98382.94;5066458;28;20202;-73
2022/06/27 05:24:28;;;;;;;31.83;16.52;;;;;;;17.65;100.00;98385.50;5066306;28;20116;-73
2022/06/27 05:26:54;;;;;;;40.78;20.00;;;;;;;17.60;100.00;98376.03;5066277;28;20036;-73
2022/06/27 05:29:21;;;;;;;40.92;19.42;;;;;;;17.65;100.00;98384.66;5066358;28;20028;-73
2022/06/27 05:31:46;;;;;;;39.17;18.98;;;;;;;17.66;100.00;98375.75;5066319;28;20048;-73
2022/06/27 05:34:12;;;;;;;36.50;20.38;;;;;;;17.65;100.00;98376.69;5066300;28;20024;-73
2022/06/27 05:36:38;;;;;;;35.08;17.40;;;;;;;17.65;100.00;98395.31;5066209;28;20339;-72
2022/06/27 05:39:05;;;;;;;38.75;19.55;;;;;;;17.62;100.00;98382.16;5066094;28;20092;-72
2022/06/27 05:41:30;;;;;;;42.60;20.40;;;;;;;17.62;100.00;98375.03;5066110;28;20033;-72
2022/06/27 05:43:56;;;;;;;32.05;17.67;;;;;;;17.63;100.00;98391.88;5066084;28;20040;-72
2022/06/27 05:46:23;;;;;;;29.08;17.67;;;;;;;17.62;100.00;98406.13;5066074;28;20386;-72
2022/06/27 05:48:48;;;;;;;29.65;17.80;;;;;;;17.63;100.00;98403.38;5066030;28;20096;-72
2022/06/27 05:51:14;;;;;;;35.85;17.55;;;;;;;17.67;100.00;98398.75;5065949;28;20335;-72
2022/06/27 05:53:40;;;;;;;31.55;17.13;;;;;;;17.72;100.00;98375.41;5065835;28;20029;-72
2022/06/27 05:56:07;;;;;;;30.42;15.48;;;;;;;17.78;100.00;98367.97;5065814;28;20048;-73
2022/06/27 05:58:33;;;;;;;25.23;12.88;;;;;;;17.84;100.00;98361.47;5065787;28;20075;-72
2022/06/27 06:00:58;;;;;;;22.30;12.98;;;;;;;17.96;100.00;98372.34;5065684;28;20039;-72
2022/06/27 06:03:25;;;;;;;21.50;13.10;;;;;;;17.95;100.00;98372.41;5065718;28;20028;-72
2022/06/27 06:05:52;;;;;;;21.27;14.48;;;;;;;17.92;100.00;98386.75;5065692;28;20021;-73
2022/06/27 06:08:20;;;;;;;19.52;12.43;;;;;;;17.94;100.00;98381.34;5065620;28;20320;-73
2022/06/27 06:10:46;;;;;;;22.17;14.25;;;;;;;18.03;100.00;98386.19;5065602;28;20309;-73
2022/06/27 06:13:11;;;;;;;22.20;12.50;;;;;;;18.20;100.00;98395.00;5065583;28;20035;-73
2022/06/27 06:15:38;;;;;;;22.45;14.75;;;;;;;18.44;100.00;98393.69;5065480;28;20025;-73
2022/06/27 06:18:04;;;;;;;22.23;13.27;;;;;;;18.77;100.00;98391.00;5065408;28;20025;-73
2022/06/27 06:20:31;;;;;;;18.35;12.07;;;;;;;18.92;100.00;98401.66;5065302;28;20023;-73
2022/06/27 06:22:57;;;;;;;23.17;14.35;;;;;;;18.97;100.00;98414.72;5065261;28;20029;-73
2022/06/27 06:25:23;;;;;;;21.05;11.93;;;;;;;19.00;100.00;98415.44;5064750;28;20041;-73
2022/06/27 06:27:48;;;;;;;20.27;11.70;;;;;;;18.95;100.00;98428.16;5065218;28;20228;-73
2022/06/27 06:30:15;;;;;;;18.52;10.73;;;;;;;18.86;100.00;98451.81;5065149;28;20017;-73
2022/06/27 06:32:42;;;;;;;20.75;10.07;;;;;;;18.75;100.00;98472.88;5065154;28;20021;-73
2022/06/27 06:35:07;;;;;;;13.65;8.75;;;;;;;18.65;100.00;98460.97;5065117;28;20021;-73
2022/06/27 06:37:33;;;;;;;16.65;8.50;;;;;;;18.64;100.00;98448.59;5065009;28;20048;-73
2022/06/27 06:39:59;;;;;;;11.50;8.10;;;;;;;18.61;100.00;98416.78;5064952;28;20025;-73
2022/06/27 06:42:25;;;;;;;13.20;8.52;;;;;;;18.76;100.00;98408.78;5064909;28;20025;-73
2022/06/27 06:44:52;;;;;;;14.48;9.60;;;;;;;19.08;100.00;98404.31;5064903;28;20048;-73
2022/06/27 06:47:18;;;;;;;15.32;9.40;;;;;;;19.07;100.00;98403.44;5064889;28;20025;-73
2022/06/27 06:49:44;;;;;;;17.48;9.32;;;;;;;19.00;100.00;98393.22;5064866;28;20274;-73
2022/06/27 06:52:10;;;;;;;17.75;10.40;;;;;;;19.10;100.00;98391.75;5064880;28;20024;-73
2022/06/27 06:54:37;;;;;;;22.20;9.73;;;;;;;19.13;100.00;98394.22;5064740;28;20021;-73
2022/06/27 06:57:03;;;;;;;20.08;8.93;;;;;;;19.34;100.00;98419.72;5064621;28;20208;-73
2022/06/27 06:59:29;;;;;;;17.00;9.50;;;;;;;19.67;99.60;98417.75;5064564;28;20040;-73
2022/06/27 07:01:54;;;;;;;14.30;8.43;;;;;;;20.32;99.21;98417.34;5063410;28;20317;-73
2022/06/27 07:04:20;;;;;;;14.52;7.47;;;;;;;20.29;97.46;98422.88;5064515;28;20084;-73
2022/06/27 07:06:46;;;;;;;12.38;6.55;;;;;;;19.85;97.01;98411.31;5064537;28;20020;-73
2022/06/27 07:09:12;;;;;;;17.67;7.15;;;;;;;19.64;99.09;98428.59;5064541;28;20104;-73
2022/06/27 07:11:39;;;;;;;13.55;7.65;;;;;;;19.45;100.00;98443.97;5064407;28;20032;-73
2022/06/27 07:14:06;;;;;;;15.68;8.43;;;;;;;19.53;100.00;98427.53;5064374;28;20083;-73
2022/06/27 07:16:31;;;;;;;21.65;9.18;;;;;;;19.53;100.00;98415.03;5064336;28;20029;-73
2022/06/27 07:19:00;;;;;;;13.63;8.55;;;;;;;19.53;100.00;98403.50;5064209;28;20024;-73
2022/06/27 07:21:28;;;;;;;14.90;8.43;;;;;;;19.66;100.00;98400.03;5063096;28;20020;-73
2022/06/27 07:23:55;;;;;;;16.20;8.07;;;;;;;19.60;98.52;98400.38;5064055;28;20030;-73
2022/06/27 07:26:21;;;;;;;12.63;8.18;;;;;;;19.58;100.00;98412.94;5064427;28;20347;-73
2022/06/27 07:28:48;;;;;;;17.85;7.60;;;;;;;19.69;100.00;98410.53;5064101;28;20051;-73
2022/06/27 07:31:15;;;;;;;12.50;7.15;;;;;;;19.89;99.67;98407.50;5064126;28;20091;-73
2022/06/27 07:33:44;;;;;;;12.32;8.40;;;;;;;20.23;97.29;98404.53;5064140;28;20063;-73
2022/06/27 07:36:15;;;;;;;12.88;7.63;;;;;;;20.06;95.96;98410.00;5062142;28;20024;-73
2022/06/27 07:38:46;;;;;;;14.63;8.23;;;;;;;19.75;97.06;98399.47;5064110;28;20025;-73
2022/06/27 07:41:14;;;;;;;14.82;8.32;;;;;;;19.64;98.31;98406.41;5064025;28;20063;-73
2022/06/27 07:43:40;;;;;;;16.55;8.75;;;;;;;19.71;99.00;98413.94;5064006;28;20017;-73
2022/06/27 07:46:06;;;;;;;14.80;7.43;;;;;;;19.70;99.50;98419.38;5063941;28;20031;-73
2022/06/27 07:48:32;;;;;;;16.15;7.32;;;;;;;19.63;99.40;98418.88;5063865;28;20029;-73
2022/06/27 07:50:58;;;;;;;14.43;6.78;;;;;;;19.66;99.23;98458.75;5063878;28;20216;-73
2022/06/27 07:53:24;;;;;;;14.95;7.50;;;;;;;19.74;100.00;98477.00;5063879;28;20016;-73
2022/06/27 07:55:55;;;;;;;16.63;7.93;;;;;;;19.76;100.00;98485.78;5063856;28;20025;-73
2022/06/27 07:58:38;;;;;;;14.95;6.38;;;;;;;19.81;100.00;98479.25;5063804;28;20025;-73
2022/06/27 08:01:06;;;;;;;16.15;7.70;;;;;;;20.06;99.79;98484.81;5063692;28;20044;-73
2022/06/27 08:03:42;;;;;;;16.40;7.60;;;;;;;20.17;98.21;98477.06;5063687;28;20092;-73
2022/06/27 08:06:15;;;;;;;12.40;6.70;;;;;;;20.93;96.12;98474.06;5063784;28;20025;-73
2022/06/27 08:08:43;;;;;;;18.45;7.60;;;;;;;21.10;92.45;98465.84;5063789;28;20024;-73
2022/06/27 08:11:14;;;;;;;16.60;8.63;;;;;;;21.11;92.42;98475.59;5063767;28;20025;-73
2022/06/27 08:13:40;;;;;;;13.13;7.28;;;;;;;21.64;92.37;98476.59;5063753;28;20025;-73
2022/06/27 08:16:07;;;;;;;10.88;7.13;;;;;;;21.85;89.84;98485.91;5063656;28;20102;-73
2022/06/27 08:18:33;;;;;;;11.15;5.90;;;;;;;21.76;90.71;98492.75;5063588;28;20075;-73
2022/06/27 08:20:59;;;;;;;10.75;5.75;;;;;;;22.83;86.51;98483.50;5063536;28;20021;-73
2022/06/27 08:23:26;;;;;;;8.50;4.60;;;;;;;22.59;85.78;98479.00;5063667;28;20025;-73
2022/06/27 08:25:51;;;;;;;10.77;4.53;;;;;;;22.17;85.45;98476.56;5063443;28;20244;-73
2022/06/27 08:28:19;;;;;;;6.13;4.20;;;;;;;21.91;87.99;98498.91;5063527;28;20026;-73
2022/06/27 08:30:45;;;;;;;7.43;4.25;;;;;;;21.75;88.50;98500.88;5063523;28;20084;-73
2022/06/27 08:33:12;;;;;;;8.38;4.75;;;;;;;22.00;90.14;98506.34;5063610;28;20048;-73
2022/06/27 08:35:39;;;;;;;8.70;4.57;;;;;;;21.91;88.99;98521.22;5063489;28;20336;-73
2022/06/27 08:38:05;;;;;;;8.55;5.07;;;;;;;21.53;89.56;98522.84;5063473;28;20025;-73
2022/06/27 08:40:32;;;;;;;8.00;5.18;;;;;;;21.34;90.35;98527.66;5063363;28;20343;-73
2022/06/27 08:42:58;;;;;;;8.15;5.53;;;;;;;20.95;90.33;98525.69;5063456;28;20247;-73
2022/06/27 08:45:25;;;;;;;6.50;4.80;;;;;;;20.90;91.29;98517.06;5063407;28;20021;-73
2022/06/27 08:47:54;;;;;;;7.75;4.82;;;;;;;20.90;91.52;98527.78;5065546;28;20024;-73
2022/06/27 08:50:20;;;;;;;9.55;5.50;;;;;;;21.06;92.13;98528.56;5067146;28;20040;-73
2022/06/27 08:52:47;;;;;;;12.13;5.70;;;;;;;20.96;92.60;98543.47;5067083;28;20228;-73
2022/06/27 08:55:12;;;;;;;11.60;5.53;;;;;;;20.87;92.83;98552.03;5066980;28;20194;-73
2022/06/27 08:57:41;;;;;;;10.20;5.10;;;;;;;20.80;93.12;98553.38;5066979;28;20059;-73
2022/06/27 09:00:11;;;;;;;11.43;5.80;;;;;;;20.68;94.36;98556.81;5066824;28;20013;-73
2022/06/27 09:02:42;;;;;;;11.13;5.53;;;;;;;20.49;91.71;98564.22;5066821;28;20025;-73
2022/06/27 09:05:15;;;;;;;13.05;5.63;;;;;;;20.29;93.52;98574.38;5067120;28;20331;-73
2022/06/27 09:07:59;;;;;;;8.98;5.18;;;;;;;20.23;93.16;98575.59;5066838;28;20268;-73
2022/06/27 09:10:32;;;;;;;13.10;6.03;;;;;;;20.34;93.62;98580.31;5065540;28;20017;-73
2022/06/27 09:13:01;;;;;;;10.05;5.45;;;;;;;20.33;93.76;98565.22;5066700;28;20190;-73
2022/06/27 09:15:51;;;;;;;16.73;7.32;;;;;;;20.41;93.16;98571.81;5066663;28;20216;-73
2022/06/27 09:18:23;;;;;;;16.52;7.18;;;;;;;20.40;93.80;98570.09;5063321;28;20036;-73
2022/06/27 09:21:02;;;;;;;;;;;;;;;20.48;93.70;98573.19;5066929;28;20020;-73
2022/06/27 09:23:39;;;;;;;10.88;5.75;;;;;;;20.23;92.59;98566.72;5066501;28;19939;-73
2022/06/27 09:26:09;;;;;;;8.88;4.82;;;;;;;19.98;94.09;98583.28;5066459;28;20107;-73
2022/06/27 09:28:43;;;;;;;11.75;5.10;;;;;;;19.89;95.50;98577.59;5066334;28;20025;-73
2022/06/27 09:31:11;;;;;;;8.57;5.13;;;;;;;19.75;95.75;98580.22;5066411;28;20028;-73
2022/06/27 09:33:41;;;;;;;6.68;4.32;;;;;;;19.74;94.97;98587.34;5066309;28;20066;-73
2022/06/27 09:36:15;;;;;;;7.63;4.63;;;;;;;19.67;95.95;98585.09;5066249;28;20028;-73
2022/06/27 09:38:45;;;;;;;8.55;5.18;;;;;;;19.55;95.73;98584.00;5066148;28;20212;-73
2022/06/27 09:41:13;;;;;;;13.90;4.63;;;;;;;19.60;95.69;98592.63;5066059;28;20014;-73
2022/06/27 09:43:46;;;;;;;7.85;4.45;;;;;;;19.51;94.22;98598.47;5064982;28;20028;-73
2022/06/27 09:46:13;;;;;;;10.52;4.03;;;;;;;19.45;96.08;98589.97;5066100;28;20328;-73
2022/06/27 09:48:44;;;;;;;7.57;4.68;;;;;;;19.68;95.02;98593.03;5064868;28;20020;-73
2022/06/27 09:51:14;;;;;;;8.10;4.07;;;;;;;19.66;95.27;98594.94;5066079;28;20029;-73
2022/06/27 09:53:40;;;;;;;9.00;4.47;;;;;;;19.87;94.51;98582.19;5065923;28;20028;-73
2022/06/27 09:56:08;;;;;;;8.13;4.03;;;;;;;20.17;92.83;98586.66;5065876;28;20025;-73
2022/06/27 09:58:37;;;;;;;6.85;3.53;;;;;;;20.30;92.79;98595.66;5065073;28;20108;-73
2022/06/27 10:01:04;;;;;;;8.25;3.85;;;;;;;20.24;90.84;98596.03;5065689;28;20017;-73
2022/06/27 10:03:31;;;;;;;6.82;3.60;;;;;;;20.31;90.93;98601.88;5064579;28;20091;-73
2022/06/27 10:05:59;;;;;;;5.60;3.53;;;;;;;20.38;90.80;98598.72;5065715;28;20040;-73
2022/06/27 10:08:25;;;;;;;12.00;3.67;;;;;;;20.22;88.74;98599.75;5065608;28;20320;-73
2022/06/27 10:11:00;;;;;;;6.10;3.05;;;;;;;21.02;87.75;98607.34;5065643;28;20017;-73
2022/06/27 10:13:25;;;;;;;5.43;3.47;;;;;;;20.86;87.15;98611.88;5065534;28;20080;-73
2022/06/27 10:15:53;;;;;;;6.80;3.20;;;;;;;20.87;87.26;98613.59;5065534;28;20052;-73
2022/06/27 10:18:18;;;;;;;3.25;2.53;;;;;;;21.01;87.65;98610.09;5065482;28;20067;-73
2022/06/27 10:20:47;;;;;;;4.15;2.70;;;;;;;21.08;85.21;98606.91;5065388;28;20088;-73
2022/06/27 10:23:17;;;;;;;4.00;3.13;;;;;;;20.95;85.37;98614.00;5065388;28;20029;-73
2022/06/27 10:25:44;;;;;;;6.07;3.05;;;;;;;20.57;86.07;98618.09;5065203;28;20299;-73
2022/06/27 10:28:09;;;;;;;5.18;2.60;;;;;;;20.64;86.83;98621.28;5065337;28;20025;-73
2022/06/27 10:30:36;;;;;;;6.50;2.33;;;;;;;20.56;86.20;98624.41;5065217;28;20017;-73
2022/06/27 10:33:24;;;;;;;5.40;2.35;;;;;;;20.29;88.79;98623.34;5065123;28;20350;-73
2022/06/27 10:35:55;;;;;;;8.80;3.22;;;;;;;20.37;89.25;98623.75;5065079;28;20033;-73
2022/06/27 10:38:28;;;;;;;6.20;2.60;;;;;;;20.45;87.49;98605.47;5065101;28;20066;-73
2022/06/27 10:40:54;;;;;;;3.72;2.50;;;;;;;20.51;87.23;98607.78;5064905;28;20368;-73
2022/06/27 10:43:35;;;;;;;4.43;2.55;;;;;;;20.49;88.36;98615.03;5064987;28;20032;-73
2022/06/27 10:46:21;;;;;;;5.07;2.92;;;;;;;20.38;87.73;98620.13;5064913;28;20028;-73
2022/06/27 10:48:57;;;;;;;2.65;2.00;;;;;;;20.23;88.31;98637.09;5060974;28;20097;-73
2022/06/27 10:51:28;;;;;;;2.90;2.13;;;;;;;20.03;90.13;98623.94;5064854;28;20351;-73
2022/06/27 10:54:05;;;;;;;3.70;2.20;;;;;;;19.99;88.60;98616.22;5064802;28;20021;-73
2022/06/27 10:56:57;;;;;;;2.92;2.00;;;;;;;20.00;87.83;98621.44;5064698;28;20067;-73
2022/06/27 10:59:23;;;;;;;2.78;1.80;;;;;;;20.00;89.06;98624.13;5063554;28;20033;-73
2022/06/27 11:01:52;;;;;;;3.28;2.00;;;;;;;20.01;89.23;98631.22;5064635;28;20059;-73
2022/06/27 11:04:44;;;;;;;5.60;1.80;;;;;;;19.97;88.13;98624.31;5064636;28;20045;-73
2022/06/27 11:07:10;;;;;;;;;;;;;;;20.21;88.37;98612.25;5063885;28;20056;-73
2022/06/27 11:09:40;;;;;;;3.77;2.10;;;;;;;20.41;85.61;98606.56;5064477;28;20192;-73
2022/06/27 11:12:07;;;;;;;2.65;1.90;;;;;;;20.60;84.78;98603.69;5064444;28;20250;-73
2022/06/27 11:14:57;;;;;;;4.80;2.45;;;;;;;20.70;84.02;98608.41;5064372;28;20029;-73
2022/06/27 11:17:32;;;;;;;3.42;1.88;;;;;;;20.72;84.72;98613.63;5064341;28;20024;-73
2022/06/27 11:20:25;;;;;;;2.88;1.80;;;;;;;20.76;83.54;98621.38;5064247;28;20023;-73
2022/06/27 11:22:58;;;;;;;;;;;;;;;20.72;83.54;98613.63;5063542;28;20312;-73
2022/06/27 11:25:27;;;;;;;4.97;2.00;;;;;;;20.75;82.72;98611.63;5064115;28;19909;-73
2022/06/27 11:27:58;;;;;;;2.97;1.75;;;;;;;20.80;82.87;98600.66;5064145;28;20032;-73